Rollet, Canada
Current Conditions -  °F | °C
As of 12:00 AM on Monday 20 Oct 2014 (Local Time) from CYUY Reporting Station
Scattered Clouds Scattered Clouds  
Wind Chill: 30°   Ceiling: Unl
Heat Index: 30°   Visibility: 15mi
Dew Point: 27°   Wind: 3mph
Humidity: 86%   Direction: 170°S
Pressure: 29.91"   Gusts: NA
Location:  47.93°N, 79.25°W
Report Text: CYUY 200400Z 17003KT 130V190 15SM SCT140 M01/M03 A2991 RMK AC4 SLP146
Loading
Personal Weather Stations






























Interactive Weather Map
Tropical Storm Tracking
New forecast layout! Learn more

10-Day Weather Forecast

Advertisements
Track Severe Weather on mobile